Sierra Grande, Argentina
Current Conditions -  °F | °C
As of 7:00 AM on Saturday 20 Dec 2014 (Local Time) from SAZN Reporting Station
Clear Clear  
Wind Chill: 52°   Ceiling: Unl
Heat Index: 52°   Visibility: 6mi
Dew Point: 28°   Wind: 8mph
Humidity: 41%   Direction: 200°SSW
Pressure: 29.83"   Gusts: NA
Location:  41.6°S, 65.37°W
Report Text: SAZN 201000Z 20007KT CAVOK 11/M02 Q1010
Loading
Personal Weather Stations






























Interactive Weather Map New forecast layout! Learn more

10-Day Weather Forecast

Advertisements
Track Severe Weather on mobile